sensor_id;sensor_type;location;lat;lon;timestamp;P1;durP1;ratioP1;P2;durP2;ratioP2
82372;SDS011;72000;42.828;23.382;2023-08-12T00:00:05;6.68;;;2.45;;
82372;SDS011;72000;42.828;23.382;2023-08-12T00:02:38;4.22;;;2.30;;
82372;SDS011;72000;42.828;23.382;2023-08-12T00:05:05;6.60;;;2.30;;
82372;SDS011;72000;42.828;23.382;2023-08-12T00:07:31;5.40;;;2.40;;
82372;SDS011;72000;42.828;23.382;2023-08-12T00:09:58;4.95;;;2.38;;
82372;SDS011;72000;42.828;23.382;2023-08-12T00:12:24;4.75;;;2.47;;
82372;SDS011;72000;42.828;23.382;2023-08-12T00:14:50;3.92;;;2.08;;
82372;SDS011;72000;42.828;23.382;2023-08-12T00:17:16;5.40;;;2.65;;
82372;SDS011;72000;42.828;23.382;2023-08-12T00:22:07;5.05;;;2.25;;
82372;SDS011;72000;42.828;23.382;2023-08-12T00:24:33;3.72;;;2.20;;
82372;SDS011;72000;42.828;23.382;2023-08-12T00:26:58;4.13;;;2.30;;
82372;SDS011;72000;42.828;23.382;2023-08-12T00:31:49;4.40;;;2.30;;
82372;SDS011;72000;42.828;23.382;2023-08-12T00:36:40;6.70;;;2.47;;
82372;SDS011;72000;42.828;23.382;2023-08-12T00:41:31;4.57;;;2.50;;
82372;SDS011;72000;42.828;23.382;2023-08-12T00:46:22;4.45;;;2.30;;
82372;SDS011;72000;42.828;23.382;2023-08-12T00:48:49;4.40;;;2.33;;
82372;SDS011;72000;42.828;23.382;2023-08-12T00:51:15;4.93;;;2.25;;
82372;SDS011;72000;42.828;23.382;2023-08-12T00:53:42;6.15;;;2.42;;
82372;SDS011;72000;42.828;23.382;2023-08-12T00:56:08;3.80;;;2.40;;
82372;SDS011;72000;42.828;23.382;2023-08-12T00:58:34;4.47;;;2.33;;
82372;SDS011;72000;42.828;23.382;2023-08-12T01:01:00;6.18;;;2.55;;
82372;SDS011;72000;42.828;23.382;2023-08-12T01:03:26;4.28;;;2.40;;
82372;SDS011;72000;42.828;23.382;2023-08-12T01:05:51;4.05;;;2.45;;
82372;SDS011;72000;42.828;23.382;2023-08-12T01:08:17;4.40;;;2.50;;
82372;SDS011;72000;42.828;23.382;2023-08-12T01:10:44;4.20;;;2.30;;
82372;SDS011;72000;42.828;23.382;2023-08-12T01:16:11;5.75;;;2.47;;
82372;SDS011;72000;42.828;23.382;2023-08-12T01:18:39;5.53;;;2.47;;
82372;SDS011;72000;42.828;23.382;2023-08-12T01:21:05;4.20;;;2.50;;
82372;SDS011;72000;42.828;23.382;2023-08-12T01:23:33;4.40;;;2.50;;
82372;SDS011;72000;42.828;23.382;2023-08-12T01:25:58;5.15;;;2.42;;
82372;SDS011;72000;42.828;23.382;2023-08-12T01:28:24;5.32;;;2.35;;
82372;SDS011;72000;42.828;23.382;2023-08-12T01:30:51;4.65;;;2.60;;
82372;SDS011;72000;42.828;23.382;2023-08-12T01:36:06;4.25;;;2.35;;
82372;SDS011;72000;42.828;23.382;2023-08-12T01:38:36;4.80;;;2.45;;
82372;SDS011;72000;42.828;23.382;2023-08-12T01:41:03;4.70;;;2.50;;
82372;SDS011;72000;42.828;23.382;2023-08-12T01:43:29;4.80;;;2.33;;
82372;SDS011;72000;42.828;23.382;2023-08-12T01:45:55;4.50;;;2.60;;
82372;SDS011;72000;42.828;23.382;2023-08-12T01:48:21;5.53;;;2.30;;
82372;SDS011;72000;42.828;23.382;2023-08-12T01:50:48;4.45;;;2.50;;
82372;SDS011;72000;42.828;23.382;2023-08-12T01:53:14;3.95;;;2.38;;
82372;SDS011;72000;42.828;23.382;2023-08-12T01:55:42;4.35;;;2.40;;
82372;SDS011;72000;42.828;23.382;2023-08-12T01:58:09;5.35;;;2.20;;
82372;SDS011;72000;42.828;23.382;2023-08-12T02:00:34;4.25;;;2.35;;
82372;SDS011;72000;42.828;23.382;2023-08-12T02:03:00;4.70;;;2.65;;
82372;SDS011;72000;42.828;23.382;2023-08-12T02:07:51;5.03;;;2.53;;
82372;SDS011;72000;42.828;23.382;2023-08-12T02:10:16;4.70;;;2.50;;
82372;SDS011;72000;42.828;23.382;2023-08-12T02:12:42;7.03;;;2.50;;
82372;SDS011;72000;42.828;23.382;2023-08-12T02:15:08;5.65;;;2.90;;
82372;SDS011;72000;42.828;23.382;2023-08-12T02:17:34;4.80;;;2.38;;
82372;SDS011;72000;42.828;23.382;2023-08-12T02:20:00;4.63;;;2.60;;
82372;SDS011;72000;42.828;23.382;2023-08-12T02:22:26;4.18;;;2.20;;
82372;SDS011;72000;42.828;23.382;2023-08-12T02:24:51;5.00;;;2.53;;
82372;SDS011;72000;42.828;23.382;2023-08-12T02:27:17;4.40;;;2.53;;
82372;SDS011;72000;42.828;23.382;2023-08-12T02:29:43;4.45;;;2.50;;
82372;SDS011;72000;42.828;23.382;2023-08-12T02:34:34;5.18;;;2.55;;
82372;SDS011;72000;42.828;23.382;2023-08-12T02:36:59;4.90;;;2.50;;
82372;SDS011;72000;42.828;23.382;2023-08-12T02:39:25;5.80;;;2.58;;
82372;SDS011;72000;42.828;23.382;2023-08-12T02:41:50;4.65;;;2.40;;
82372;SDS011;72000;42.828;23.382;2023-08-12T02:44:16;6.00;;;2.80;;
82372;SDS011;72000;42.828;23.382;2023-08-12T02:49:08;5.82;;;2.22;;
82372;SDS011;72000;42.828;23.382;2023-08-12T02:51:33;4.70;;;2.50;;
82372;SDS011;72000;42.828;23.382;2023-08-12T02:53:59;4.47;;;2.45;;
82372;SDS011;72000;42.828;23.382;2023-08-12T02:56:24;4.78;;;2.20;;
82372;SDS011;72000;42.828;23.382;2023-08-12T02:58:50;5.55;;;2.50;;
82372;SDS011;72000;42.828;23.382;2023-08-12T03:01:15;5.03;;;2.60;;
82372;SDS011;72000;42.828;23.382;2023-08-12T03:06:06;4.63;;;2.40;;
82372;SDS011;72000;42.828;23.382;2023-08-12T03:08:32;4.38;;;2.50;;
82372;SDS011;72000;42.828;23.382;2023-08-12T03:10:58;4.57;;;2.40;;
82372;SDS011;72000;42.828;23.382;2023-08-12T03:13:25;5.00;;;2.55;;
82372;SDS011;72000;42.828;23.382;2023-08-12T03:15:50;5.05;;;2.88;;
82372;SDS011;72000;42.828;23.382;2023-08-12T03:18:16;5.75;;;2.55;;
82372;SDS011;72000;42.828;23.382;2023-08-12T03:20:42;4.45;;;2.50;;
82372;SDS011;72000;42.828;23.382;2023-08-12T03:25:33;5.88;;;2.70;;
82372;SDS011;72000;42.828;23.382;2023-08-12T03:27:58;4.78;;;2.53;;
82372;SDS011;72000;42.828;23.382;2023-08-12T03:30:24;5.78;;;2.55;;
82372;SDS011;72000;42.828;23.382;2023-08-12T03:32:51;6.90;;;2.85;;
82372;SDS011;72000;42.828;23.382;2023-08-12T03:35:16;4.30;;;2.55;;
82372;SDS011;72000;42.828;23.382;2023-08-12T03:37:42;4.78;;;2.45;;
82372;SDS011;72000;42.828;23.382;2023-08-12T03:40:08;6.55;;;2.83;;
82372;SDS011;72000;42.828;23.382;2023-08-12T03:42:34;4.55;;;2.38;;
82372;SDS011;72000;42.828;23.382;2023-08-12T03:44:59;3.90;;;2.15;;
82372;SDS011;72000;42.828;23.382;2023-08-12T03:47:25;4.30;;;2.35;;
82372;SDS011;72000;42.828;23.382;2023-08-12T03:49:50;5.18;;;2.30;;
82372;SDS011;72000;42.828;23.382;2023-08-12T03:52:16;4.93;;;2.47;;
82372;SDS011;72000;42.828;23.382;2023-08-12T03:54:42;4.75;;;2.45;;
82372;SDS011;72000;42.828;23.382;2023-08-12T03:57:07;6.35;;;2.63;;
82372;SDS011;72000;42.828;23.382;2023-08-12T03:59:33;4.38;;;2.20;;
82372;SDS011;72000;42.828;23.382;2023-08-12T04:01:59;5.18;;;2.50;;
82372;SDS011;72000;42.828;23.382;2023-08-12T04:04:24;4.45;;;2.50;;
82372;SDS011;72000;42.828;23.382;2023-08-12T04:06:50;6.63;;;2.60;;
82372;SDS011;72000;42.828;23.382;2023-08-12T04:09:18;5.07;;;2.45;;
82372;SDS011;72000;42.828;23.382;2023-08-12T04:14:10;4.32;;;2.40;;
82372;SDS011;72000;42.828;23.382;2023-08-12T04:16:36;4.57;;;2.28;;
82372;SDS011;72000;42.828;23.382;2023-08-12T04:21:27;5.28;;;2.60;;
82372;SDS011;72000;42.828;23.382;2023-08-12T04:23:53;5.10;;;2.42;;
82372;SDS011;72000;42.828;23.382;2023-08-12T04:26:18;4.65;;;2.65;;
82372;SDS011;72000;42.828;23.382;2023-08-12T04:28:44;5.78;;;2.95;;
82372;SDS011;72000;42.828;23.382;2023-08-12T04:31:09;4.93;;;2.60;;
82372;SDS011;72000;42.828;23.382;2023-08-12T04:33:35;4.90;;;2.58;;
82372;SDS011;72000;42.828;23.382;2023-08-12T04:36:00;5.55;;;2.50;;
82372;SDS011;72000;42.828;23.382;2023-08-12T04:38:26;4.43;;;2.40;;
82372;SDS011;72000;42.828;23.382;2023-08-12T04:43:18;5.07;;;2.65;;
82372;SDS011;72000;42.828;23.382;2023-08-12T04:45:47;4.13;;;2.40;;
82372;SDS011;72000;42.828;23.382;2023-08-12T04:48:12;4.40;;;2.45;;
82372;SDS011;72000;42.828;23.382;2023-08-12T04:50:38;4.47;;;2.47;;
82372;SDS011;72000;42.828;23.382;2023-08-12T04:53:04;4.72;;;2.53;;
82372;SDS011;72000;42.828;23.382;2023-08-12T04:55:30;5.35;;;2.53;;
82372;SDS011;72000;42.828;23.382;2023-08-12T05:00:22;5.15;;;2.40;;
82372;SDS011;72000;42.828;23.382;2023-08-12T05:02:48;4.32;;;2.42;;
82372;SDS011;72000;42.828;23.382;2023-08-12T05:05:13;6.00;;;2.65;;
82372;SDS011;72000;42.828;23.382;2023-08-12T05:07:39;5.50;;;2.67;;
82372;SDS011;72000;42.828;23.382;2023-08-12T05:24:23;5.35;;;2.80;;
82372;SDS011;72000;42.828;23.382;2023-08-12T05:26:49;5.60;;;2.95;;
82372;SDS011;72000;42.828;23.382;2023-08-12T05:31:40;4.88;;;2.78;;
82372;SDS011;72000;42.828;23.382;2023-08-12T05:34:06;4.80;;;2.90;;
82372;SDS011;72000;42.828;23.382;2023-08-12T05:38:57;6.45;;;3.05;;
82372;SDS011;72000;42.828;23.382;2023-08-12T05:41:22;6.38;;;3.50;;
82372;SDS011;72000;42.828;23.382;2023-08-12T05:43:48;8.27;;;3.70;;
82372;SDS011;72000;42.828;23.382;2023-08-12T05:46:14;7.30;;;3.28;;
82372;SDS011;72000;42.828;23.382;2023-08-12T05:48:39;7.53;;;3.47;;
82372;SDS011;72000;42.828;23.382;2023-08-12T05:51:05;5.57;;;3.65;;
82372;SDS011;72000;42.828;23.382;2023-08-12T05:53:30;6.10;;;3.40;;
82372;SDS011;72000;42.828;23.382;2023-08-12T05:55:57;5.78;;;3.30;;
82372;SDS011;72000;42.828;23.382;2023-08-12T05:58:22;5.78;;;3.30;;
82372;SDS011;72000;42.828;23.382;2023-08-12T06:03:13;5.97;;;3.20;;
82372;SDS011;72000;42.828;23.382;2023-08-12T06:05:40;6.32;;;3.40;;
82372;SDS011;72000;42.828;23.382;2023-08-12T06:08:06;6.18;;;3.22;;
82372;SDS011;72000;42.828;23.382;2023-08-12T06:10:32;6.30;;;3.33;;
82372;SDS011;72000;42.828;23.382;2023-08-12T06:12:58;6.97;;;3.65;;
82372;SDS011;72000;42.828;23.382;2023-08-12T06:15:24;7.65;;;4.30;;
82372;SDS011;72000;42.828;23.382;2023-08-12T06:20:14;7.60;;;4.10;;
82372;SDS011;72000;42.828;23.382;2023-08-12T06:22:40;8.00;;;4.30;;
82372;SDS011;72000;42.828;23.382;2023-08-12T06:25:06;7.38;;;4.30;;
82372;SDS011;72000;42.828;23.382;2023-08-12T06:27:32;7.78;;;4.38;;
82372;SDS011;72000;42.828;23.382;2023-08-12T06:32:22;6.63;;;3.70;;
82372;SDS011;72000;42.828;23.382;2023-08-12T06:34:48;6.13;;;3.78;;
82372;SDS011;72000;42.828;23.382;2023-08-12T08:20:59;5.25;;;2.40;;
82372;SDS011;72000;42.828;23.382;2023-08-12T08:25:49;4.25;;;2.40;;
82372;SDS011;72000;42.828;23.382;2023-08-12T08:28:15;5.72;;;2.50;;
82372;SDS011;72000;42.828;23.382;2023-08-12T08:30:41;4.32;;;2.50;;
82372;SDS011;72000;42.828;23.382;2023-08-12T08:33:06;4.47;;;2.72;;
82372;SDS011;72000;42.828;23.382;2023-08-12T08:35:32;5.78;;;2.58;;
82372;SDS011;72000;42.828;23.382;2023-08-12T08:37:57;3.95;;;2.42;;
82372;SDS011;72000;42.828;23.382;2023-08-12T08:40:23;4.78;;;2.50;;
82372;SDS011;72000;42.828;23.382;2023-08-12T08:42:51;4.68;;;2.53;;
82372;SDS011;72000;42.828;23.382;2023-08-12T08:45:18;5.35;;;2.78;;
82372;SDS011;72000;42.828;23.382;2023-08-12T08:47:46;5.40;;;2.60;;
82372;SDS011;72000;42.828;23.382;2023-08-12T08:50:13;4.25;;;2.45;;
82372;SDS011;72000;42.828;23.382;2023-08-12T08:52:39;3.63;;;2.30;;
82372;SDS011;72000;42.828;23.382;2023-08-12T08:55:07;6.18;;;2.50;;
82372;SDS011;72000;42.828;23.382;2023-08-12T08:57:33;4.75;;;2.40;;
82372;SDS011;72000;42.828;23.382;2023-08-12T08:59:58;4.50;;;2.58;;
82372;SDS011;72000;42.828;23.382;2023-08-12T09:02:24;5.63;;;2.60;;
82372;SDS011;72000;42.828;23.382;2023-08-12T09:04:50;5.18;;;2.45;;
82372;SDS011;72000;42.828;23.382;2023-08-12T09:07:16;4.78;;;2.70;;
82372;SDS011;72000;42.828;23.382;2023-08-12T09:09:42;4.00;;;2.28;;
82372;SDS011;72000;42.828;23.382;2023-08-12T09:12:13;6.57;;;2.70;;
82372;SDS011;72000;42.828;23.382;2023-08-12T09:14:40;6.97;;;3.38;;
82372;SDS011;72000;42.828;23.382;2023-08-12T09:17:06;6.00;;;2.80;;
82372;SDS011;72000;42.828;23.382;2023-08-12T09:19:32;6.50;;;2.63;;
82372;SDS011;72000;42.828;23.382;2023-08-12T09:21:58;5.32;;;2.70;;
82372;SDS011;72000;42.828;23.382;2023-08-12T09:24:27;5.32;;;2.25;;
82372;SDS011;72000;42.828;23.382;2023-08-12T09:26:53;6.18;;;2.70;;
82372;SDS011;72000;42.828;23.382;2023-08-12T09:29:22;4.40;;;2.10;;
82372;SDS011;72000;42.828;23.382;2023-08-12T09:31:49;6.18;;;2.40;;
82372;SDS011;72000;42.828;23.382;2023-08-12T09:34:15;5.57;;;2.40;;
82372;SDS011;72000;42.828;23.382;2023-08-12T09:36:43;4.03;;;2.40;;
82372;SDS011;72000;42.828;23.382;2023-08-12T09:39:08;4.50;;;2.25;;
82372;SDS011;72000;42.828;23.382;2023-08-12T09:41:34;4.13;;;2.30;;
82372;SDS011;72000;42.828;23.382;2023-08-12T09:44:01;4.57;;;2.05;;
82372;SDS011;72000;42.828;23.382;2023-08-12T09:46:27;5.75;;;2.28;;
82372;SDS011;72000;42.828;23.382;2023-08-12T09:48:53;5.45;;;2.08;;
82372;SDS011;72000;42.828;23.382;2023-08-12T09:51:19;4.78;;;2.17;;
82372;SDS011;72000;42.828;23.382;2023-08-12T09:53:47;4.72;;;2.20;;
82372;SDS011;72000;42.828;23.382;2023-08-12T09:56:14;4.32;;;2.38;;
82372;SDS011;72000;42.828;23.382;2023-08-12T09:58:43;3.88;;;2.20;;
82372;SDS011;72000;42.828;23.382;2023-08-12T10:01:10;3.97;;;2.45;;
82372;SDS011;72000;42.828;23.382;2023-08-12T10:03:36;3.42;;;2.10;;
82372;SDS011;72000;42.828;23.382;2023-08-12T10:06:02;3.20;;;2.00;;
82372;SDS011;72000;42.828;23.382;2023-08-12T10:08:28;4.57;;;2.28;;
82372;SDS011;72000;42.828;23.382;2023-08-12T10:10:54;4.85;;;2.20;;
82372;SDS011;72000;42.828;23.382;2023-08-12T10:13:20;4.00;;;2.28;;
82372;SDS011;72000;42.828;23.382;2023-08-12T10:15:46;4.57;;;2.40;;
82372;SDS011;72000;42.828;23.382;2023-08-12T10:18:13;3.53;;;1.95;;
82372;SDS011;72000;42.828;23.382;2023-08-12T10:20:40;3.90;;;2.22;;
82372;SDS011;72000;42.828;23.382;2023-08-12T10:23:05;3.70;;;2.00;;
82372;SDS011;72000;42.828;23.382;2023-08-12T10:25:32;3.72;;;2.05;;
82372;SDS011;72000;42.828;23.382;2023-08-12T10:27:59;4.22;;;2.20;;
82372;SDS011;72000;42.828;23.382;2023-08-12T10:30:28;3.50;;;2.20;;
82372;SDS011;72000;42.828;23.382;2023-08-12T10:32:54;3.78;;;2.20;;
82372;SDS011;72000;42.828;23.382;2023-08-12T10:35:20;4.18;;;2.28;;
82372;SDS011;72000;42.828;23.382;2023-08-12T10:37:48;3.25;;;1.98;;
82372;SDS011;72000;42.828;23.382;2023-08-12T10:40:20;3.78;;;2.10;;
82372;SDS011;72000;42.828;23.382;2023-08-12T10:42:47;3.75;;;2.25;;
82372;SDS011;72000;42.828;23.382;2023-08-12T10:45:14;3.90;;;2.00;;
82372;SDS011;72000;42.828;23.382;2023-08-12T10:48:23;4.45;;;1.92;;
82372;SDS011;72000;42.828;23.382;2023-08-12T10:50:43;3.60;;;2.00;;
82372;SDS011;72000;42.828;23.382;2023-08-12T10:53:26;3.30;;;1.90;;
82372;SDS011;72000;42.828;23.382;2023-08-12T10:56:03;3.22;;;1.80;;
82372;SDS011;72000;42.828;23.382;2023-08-12T10:58:41;3.40;;;1.90;;
82372;SDS011;72000;42.828;23.382;2023-08-12T11:01:11;4.63;;;2.10;;
82372;SDS011;72000;42.828;23.382;2023-08-12T11:03:45;5.13;;;2.40;;
82372;SDS011;72000;42.828;23.382;2023-08-12T11:06:11;3.72;;;2.20;;
82372;SDS011;72000;42.828;23.382;2023-08-12T11:08:45;3.70;;;1.85;;
82372;SDS011;72000;42.828;23.382;2023-08-12T11:11:24;3.03;;;1.83;;
82372;SDS011;72000;42.828;23.382;2023-08-12T11:13:56;3.83;;;1.90;;
82372;SDS011;72000;42.828;23.382;2023-08-12T11:16:35;4.20;;;2.10;;
82372;SDS011;72000;42.828;23.382;2023-08-12T11:19:02;4.50;;;2.20;;
82372;SDS011;72000;42.828;23.382;2023-08-12T11:21:28;3.83;;;2.15;;
82372;SDS011;72000;42.828;23.382;2023-08-12T11:23:54;4.13;;;2.05;;
82372;SDS011;72000;42.828;23.382;2023-08-12T11:26:23;3.22;;;1.85;;
82372;SDS011;72000;42.828;23.382;2023-08-12T11:28:49;4.03;;;2.00;;
82372;SDS011;72000;42.828;23.382;2023-08-12T11:31:16;3.25;;;1.92;;
82372;SDS011;72000;42.828;23.382;2023-08-12T11:33:42;4.38;;;2.17;;
82372;SDS011;72000;42.828;23.382;2023-08-12T11:36:08;4.50;;;1.98;;
82372;SDS011;72000;42.828;23.382;2023-08-12T11:38:33;3.30;;;1.98;;
82372;SDS011;72000;42.828;23.382;2023-08-12T11:41:02;3.75;;;2.30;;
82372;SDS011;72000;42.828;23.382;2023-08-12T11:43:28;4.57;;;2.40;;
82372;SDS011;72000;42.828;23.382;2023-08-12T11:45:55;4.10;;;2.03;;
82372;SDS011;72000;42.828;23.382;2023-08-12T11:48:21;3.90;;;2.10;;
82372;SDS011;72000;42.828;23.382;2023-08-12T11:50:48;5.47;;;1.92;;
82372;SDS011;72000;42.828;23.382;2023-08-12T11:53:13;3.30;;;1.80;;
82372;SDS011;72000;42.828;23.382;2023-08-12T11:55:39;3.60;;;1.90;;
82372;SDS011;72000;42.828;23.382;2023-08-12T11:58:05;3.20;;;1.95;;
82372;SDS011;72000;42.828;23.382;2023-08-12T12:00:30;4.38;;;2.00;;
82372;SDS011;72000;42.828;23.382;2023-08-12T12:02:56;4.00;;;1.98;;
82372;SDS011;72000;42.828;23.382;2023-08-12T12:05:23;3.58;;;1.92;;
82372;SDS011;72000;42.828;23.382;2023-08-12T12:07:51;4.97;;;2.13;;
82372;SDS011;72000;42.828;23.382;2023-08-12T12:10:21;4.13;;;2.13;;
82372;SDS011;72000;42.828;23.382;2023-08-12T12:12:54;4.53;;;2.00;;
82372;SDS011;72000;42.828;23.382;2023-08-12T12:15:20;4.95;;;1.90;;
82372;SDS011;72000;42.828;23.382;2023-08-12T12:17:46;3.22;;;1.80;;
82372;SDS011;72000;42.828;23.382;2023-08-12T12:20:12;3.42;;;1.90;;
82372;SDS011;72000;42.828;23.382;2023-08-12T12:22:40;3.50;;;1.90;;
82372;SDS011;72000;42.828;23.382;2023-08-12T12:25:09;3.38;;;1.80;;
82372;SDS011;72000;42.828;23.382;2023-08-12T12:27:36;4.15;;;2.10;;
82372;SDS011;72000;42.828;23.382;2023-08-12T12:30:04;3.60;;;2.00;;
82372;SDS011;72000;42.828;23.382;2023-08-12T12:32:31;4.35;;;2.20;;
82372;SDS011;72000;42.828;23.382;2023-08-12T12:34:56;3.50;;;2.00;;
82372;SDS011;72000;42.828;23.382;2023-08-12T12:37:22;4.65;;;1.90;;
82372;SDS011;72000;42.828;23.382;2023-08-12T12:39:48;3.65;;;1.90;;
82372;SDS011;72000;42.828;23.382;2023-08-12T12:42:13;6.43;;;4.82;;
82372;SDS011;72000;42.828;23.382;2023-08-12T12:44:39;31.95;;;16.60;;
82372;SDS011;72000;42.828;23.382;2023-08-12T12:47:05;18.58;;;9.80;;
82372;SDS011;72000;42.828;23.382;2023-08-12T12:49:30;91.72;;;45.35;;
82372;SDS011;72000;42.828;23.382;2023-08-12T12:51:56;436.00;;;232.93;;
82372;SDS011;72000;42.828;23.382;2023-08-12T12:54:22;394.00;;;213.88;;
82372;SDS011;72000;42.828;23.382;2023-08-12T12:56:47;85.10;;;34.05;;
82372;SDS011;72000;42.828;23.382;2023-08-12T12:59:13;362.58;;;180.13;;
82372;SDS011;72000;42.828;23.382;2023-08-12T13:01:40;297.90;;;139.48;;
82372;SDS011;72000;42.828;23.382;2023-08-12T13:04:06;548.72;;;301.08;;
82372;SDS011;72000;42.828;23.382;2023-08-12T13:06:33;377.90;;;216.27;;
82372;SDS011;72000;42.828;23.382;2023-08-12T13:08:59;299.02;;;160.60;;
82372;SDS011;72000;42.828;23.382;2023-08-12T13:11:25;676.97;;;382.60;;
82372;SDS011;72000;42.828;23.382;2023-08-12T13:13:51;287.73;;;158.60;;
82372;SDS011;72000;42.828;23.382;2023-08-12T13:16:17;275.38;;;146.18;;
82372;SDS011;72000;42.828;23.382;2023-08-12T13:18:43;311.50;;;159.93;;
82372;SDS011;72000;42.828;23.382;2023-08-12T13:21:08;43.65;;;26.35;;
82372;SDS011;72000;42.828;23.382;2023-08-12T13:23:34;12.38;;;6.25;;
82372;SDS011;72000;42.828;23.382;2023-08-12T13:25:59;9.80;;;4.95;;
82372;SDS011;72000;42.828;23.382;2023-08-12T13:28:25;9.38;;;4.20;;
82372;SDS011;72000;42.828;23.382;2023-08-12T13:30:51;8.18;;;4.75;;
82372;SDS011;72000;42.828;23.382;2023-08-12T13:33:16;8.15;;;4.10;;
82372;SDS011;72000;42.828;23.382;2023-08-12T13:35:42;4.30;;;2.35;;
82372;SDS011;72000;42.828;23.382;2023-08-12T13:38:07;6.05;;;2.55;;
82372;SDS011;72000;42.828;23.382;2023-08-12T13:40:33;4.65;;;2.20;;
82372;SDS011;72000;42.828;23.382;2023-08-12T13:42:58;5.93;;;2.83;;
82372;SDS011;72000;42.828;23.382;2023-08-12T13:45:24;4.40;;;2.30;;
82372;SDS011;72000;42.828;23.382;2023-08-12T13:47:50;3.80;;;1.90;;
82372;SDS011;72000;42.828;23.382;2023-08-12T13:50:16;3.63;;;1.90;;
82372;SDS011;72000;42.828;23.382;2023-08-12T13:52:42;6.32;;;1.98;;
82372;SDS011;72000;42.828;23.382;2023-08-12T13:55:07;3.75;;;1.90;;
82372;SDS011;72000;42.828;23.382;2023-08-12T13:57:34;4.57;;;2.30;;
82372;SDS011;72000;42.828;23.382;2023-08-12T14:00:00;4.25;;;2.00;;
82372;SDS011;72000;42.828;23.382;2023-08-12T14:02:26;5.32;;;1.90;;
82372;SDS011;72000;42.828;23.382;2023-08-12T14:04:52;4.10;;;2.30;;
82372;SDS011;72000;42.828;23.382;2023-08-12T14:07:17;3.83;;;1.92;;
82372;SDS011;72000;42.828;23.382;2023-08-12T14:09:45;3.55;;;1.80;;
82372;SDS011;72000;42.828;23.382;2023-08-12T14:12:11;4.30;;;1.85;;
82372;SDS011;72000;42.828;23.382;2023-08-12T14:14:37;3.70;;;1.90;;
82372;SDS011;72000;42.828;23.382;2023-08-12T14:17:02;3.33;;;1.75;;
82372;SDS011;72000;42.828;23.382;2023-08-12T14:19:28;4.45;;;1.80;;
82372;SDS011;72000;42.828;23.382;2023-08-12T14:21:54;4.82;;;1.70;;
82372;SDS011;72000;42.828;23.382;2023-08-12T14:24:19;3.22;;;1.75;;
82372;SDS011;72000;42.828;23.382;2023-08-12T14:26:45;3.30;;;1.80;;
82372;SDS011;72000;42.828;23.382;2023-08-12T14:29:10;3.67;;;1.90;;
82372;SDS011;72000;42.828;23.382;2023-08-12T14:31:36;4.93;;;1.83;;
82372;SDS011;72000;42.828;23.382;2023-08-12T14:34:02;4.68;;;2.00;;
82372;SDS011;72000;42.828;23.382;2023-08-12T14:36:28;3.70;;;1.75;;
82372;SDS011;72000;42.828;23.382;2023-08-12T14:38:54;3.30;;;1.80;;
82372;SDS011;72000;42.828;23.382;2023-08-12T14:41:19;4.28;;;1.85;;
82372;SDS011;72000;42.828;23.382;2023-08-12T14:43:45;12.52;;;2.30;;
82372;SDS011;72000;42.828;23.382;2023-08-12T14:46:10;3.05;;;1.65;;
82372;SDS011;72000;42.828;23.382;2023-08-12T14:48:36;63.72;;;8.73;;
82372;SDS011;72000;42.828;23.382;2023-08-12T14:51:01;15.25;;;3.35;;
82372;SDS011;72000;42.828;23.382;2023-08-12T14:53:27;27.30;;;4.55;;
82372;SDS011;72000;42.828;23.382;2023-08-12T14:55:53;5.57;;;2.10;;
82372;SDS011;72000;42.828;23.382;2023-08-12T14:58:18;9.00;;;2.35;;
82372;SDS011;72000;42.828;23.382;2023-08-12T15:00:46;7.38;;;2.05;;
82372;SDS011;72000;42.828;23.382;2023-08-12T15:03:12;9.13;;;2.35;;
82372;SDS011;72000;42.828;23.382;2023-08-12T15:05:39;4.22;;;1.90;;
82372;SDS011;72000;42.828;23.382;2023-08-12T15:08:05;14.70;;;2.90;;
82372;SDS011;72000;42.828;23.382;2023-08-12T15:10:31;4.28;;;2.15;;
82372;SDS011;72000;42.828;23.382;2023-08-12T15:13:00;4.10;;;1.85;;
82372;SDS011;72000;42.828;23.382;2023-08-12T15:15:25;3.40;;;1.88;;
82372;SDS011;72000;42.828;23.382;2023-08-12T15:17:51;4.05;;;1.83;;
82372;SDS011;72000;42.828;23.382;2023-08-12T15:20:17;5.43;;;1.77;;
82372;SDS011;72000;42.828;23.382;2023-08-12T15:22:42;3.15;;;1.70;;
82372;SDS011;72000;42.828;23.382;2023-08-12T15:25:08;12.90;;;3.40;;
82372;SDS011;72000;42.828;23.382;2023-08-12T15:27:34;4.68;;;1.90;;
82372;SDS011;72000;42.828;23.382;2023-08-12T15:29:59;10.73;;;2.30;;
82372;SDS011;72000;42.828;23.382;2023-08-12T15:32:28;4.35;;;2.10;;
82372;SDS011;72000;42.828;23.382;2023-08-12T15:34:55;3.90;;;1.83;;
82372;SDS011;72000;42.828;23.382;2023-08-12T15:37:21;4.10;;;1.88;;
82372;SDS011;72000;42.828;23.382;2023-08-12T15:39:46;81.80;;;12.43;;
82372;SDS011;72000;42.828;23.382;2023-08-12T15:42:12;6.45;;;2.22;;
82372;SDS011;72000;42.828;23.382;2023-08-12T15:44:38;3.55;;;1.63;;
82372;SDS011;72000;42.828;23.382;2023-08-12T15:47:03;85.13;;;11.57;;
82372;SDS011;72000;42.828;23.382;2023-08-12T15:49:32;5.85;;;1.90;;
82372;SDS011;72000;42.828;23.382;2023-08-12T15:51:58;10.80;;;2.50;;
82372;SDS011;72000;42.828;23.382;2023-08-12T15:54:24;8.23;;;2.55;;
82372;SDS011;72000;42.828;23.382;2023-08-12T15:56:50;6.53;;;2.13;;
82372;SDS011;72000;42.828;23.382;2023-08-12T15:59:16;18.02;;;3.17;;
82372;SDS011;72000;42.828;23.382;2023-08-12T16:01:41;4.30;;;2.00;;
82372;SDS011;72000;42.828;23.382;2023-08-12T16:04:07;6.45;;;2.00;;
82372;SDS011;72000;42.828;23.382;2023-08-12T16:06:33;3.40;;;1.67;;
82372;SDS011;72000;42.828;23.382;2023-08-12T16:08:58;4.07;;;1.90;;
82372;SDS011;72000;42.828;23.382;2023-08-12T16:11:24;3.35;;;1.70;;
82372;SDS011;72000;42.828;23.382;2023-08-12T16:13:50;3.90;;;1.67;;
82372;SDS011;72000;42.828;23.382;2023-08-12T16:16:16;6.13;;;1.80;;
82372;SDS011;72000;42.828;23.382;2023-08-12T16:18:41;3.03;;;1.63;;
82372;SDS011;72000;42.828;23.382;2023-08-12T16:21:07;3.10;;;1.70;;
82372;SDS011;72000;42.828;23.382;2023-08-12T16:23:33;3.90;;;1.75;;
82372;SDS011;72000;42.828;23.382;2023-08-12T16:25:59;3.33;;;1.73;;
82372;SDS011;72000;42.828;23.382;2023-08-12T16:28:24;5.28;;;1.80;;
82372;SDS011;72000;42.828;23.382;2023-08-12T16:30:51;3.70;;;1.75;;
82372;SDS011;72000;42.828;23.382;2023-08-12T16:33:17;5.60;;;1.70;;
82372;SDS011;72000;42.828;23.382;2023-08-12T16:35:42;3.25;;;1.80;;
82372;SDS011;72000;42.828;23.382;2023-08-12T16:38:08;3.00;;;1.80;;
82372;SDS011;72000;42.828;23.382;2023-08-12T16:40:34;3.42;;;1.83;;
82372;SDS011;72000;42.828;23.382;2023-08-12T16:42:59;3.55;;;1.80;;
82372;SDS011;72000;42.828;23.382;2023-08-12T16:45:25;4.60;;;2.00;;
82372;SDS011;72000;42.828;23.382;2023-08-12T16:47:50;3.72;;;1.92;;
82372;SDS011;72000;42.828;23.382;2023-08-12T16:50:16;4.30;;;2.13;;
82372;SDS011;72000;42.828;23.382;2023-08-12T16:52:42;3.88;;;1.92;;
82372;SDS011;72000;42.828;23.382;2023-08-12T16:55:08;3.25;;;1.88;;
82372;SDS011;72000;42.828;23.382;2023-08-12T16:57:34;3.63;;;2.00;;
82372;SDS011;72000;42.828;23.382;2023-08-12T17:00:00;3.85;;;1.95;;
82372;SDS011;72000;42.828;23.382;2023-08-12T17:02:29;3.60;;;2.00;;
82372;SDS011;72000;42.828;23.382;2023-08-12T17:04:56;3.80;;;1.80;;
82372;SDS011;72000;42.828;23.382;2023-08-12T17:07:22;4.35;;;1.95;;
82372;SDS011;72000;42.828;23.382;2023-08-12T17:09:48;3.90;;;2.10;;
82372;SDS011;72000;42.828;23.382;2023-08-12T17:12:13;3.97;;;1.70;;
82372;SDS011;72000;42.828;23.382;2023-08-12T17:14:39;3.50;;;2.03;;
82372;SDS011;72000;42.828;23.382;2023-08-12T17:17:05;3.60;;;1.83;;